KHKA/HKA METAR and TAF weather

Enter ICAO airport designator
Station Type Date Time Source
KHKA METAR 2020/03/29 14:53 UTC NOAA

KHKA 291453Z AUTO 26013KT 10SM CLR 16/05 A3007 RMK AO2 SLP182 T01560050 51030 $


Station Type Date Time Source
KHKA Decoded METAR 2020/03/29 14:53 UTC NOAA

BLYTHEVILLE MUNICIPAL AIRPORT , AR, United States (KHKA) 35-56N 89-50W 78M
Mar 29, 2020 - 10:53 AM EDT / 2020.03.29 1453 UTC
Wind: from the W (260 degrees) at 15 MPH (13 KT):0
Visibility: 10 mile(s):0
Sky conditions: clear
Temperature: 60.1 F (15.6 C)
Dew Point: 41.0 F (5.0 C)
Relative Humidity: 49%
Pressure (altimeter): 30.07 in. Hg (1018 hPa)
Pressure tendency: 0.09 inches (3.0 hPa) higher than three hours ago
ob: KHKA 291453Z AUTO 26013KT 10SM CLR 16/05 A3007 RMK AO2 SLP182 T01560050 51030
cycle: 15

Station Type Date Time Source
KHKA TAF UTC NOAA

Error!

Example: see airport list